Time;durP1;ratioP1;P1;durP2;ratioP2;P2;SDS_P1;SDS_P2;PMS_P1;PMS_P2;Temp;Humidity;BMP_temperature;BMP_pressure;BME280_temperature;BME280_humidity;BME280_pressure;Samples;Min_cycle;Max_cycle;Signal;HPM_P1;HPM_P2
2022/11/11 00:00:20;;;;;;;71.93;11.57;;;7.40;99.90;;;;;;5087629;28;20797;-75
2022/11/11 00:03:05;;;;;;;171.77;13.57;;;7.40;99.90;;;;;;5085574;28;20471;-75
2022/11/11 00:05:50;;;;;;;116.57;13.13;;;7.30;99.90;;;;;;5089970;28;20515;-75
2022/11/11 00:08:36;;;;;;;25.10;12.27;;;7.10;99.90;;;;;;5094709;28;20470;-75
2022/11/11 00:11:22;;;;;;;40.83;11.87;;;7.10;99.90;;;;;;5091978;28;20482;-75
2022/11/11 00:14:08;;;;;;;14.13;11.03;;;7.30;99.90;;;;;;5083290;28;20504;-75
2022/11/11 00:26:04;;;;;;;19.13;9.37;;;7.60;99.90;;;;;;5099323;28;20198;-75
2022/11/11 00:28:51;;;;;;;18.33;9.87;;;7.40;99.90;;;;;;5085404;28;20501;-75
2022/11/11 00:32:21;;;;;;;11.83;8.50;;;7.20;99.90;;;;;;5102726;28;20444;-75
2022/11/11 00:35:51;;;;;;;10.00;8.27;;;7.10;99.90;;;;;;5093732;28;20412;-75
2022/11/11 00:37:47;;;;;;;15.40;8.77;;;7.20;99.90;;;;;;5100067;28;20439;-74
2022/11/11 00:40:33;;;;;;;14.03;10.03;;;7.30;99.90;;;;;;5101037;28;20388;-75
2022/11/11 00:43:18;;;;;;;18.77;8.63;;;7.30;99.90;;;;;;5085773;28;20510;-75
2022/11/11 00:52:12;;;;;;;10.33;9.27;;;7.40;99.90;;;;;;5095908;28;20441;-74
2022/11/11 00:54:57;;;;;;;12.20;8.23;;;7.30;99.90;;;;;;5091003;28;20430;-75
2022/11/11 00:57:43;;;;;;;13.93;7.70;;;7.30;99.90;;;;;;5101623;28;20508;-75
2022/11/11 01:00:29;;;;;;;16.53;8.23;;;7.20;99.90;;;;;;5088483;28;20203;-74
2022/11/11 01:03:16;;;;;;;12.90;8.70;;;7.00;99.90;;;;;;5085240;28;20491;-75
2022/11/11 01:06:02;;;;;;;16.77;8.87;;;6.80;99.90;;;;;;5090209;28;20500;-75
2022/11/11 01:08:48;;;;;;;15.15;8.95;;;6.90;99.90;;;;;;5098230;28;20425;-75
2022/11/11 01:11:33;;;;;;;19.57;8.30;;;6.90;99.90;;;;;;5102041;28;20203;-75
2022/11/11 01:14:19;;;;;;;18.60;8.37;;;6.70;99.90;;;;;;5090602;28;20519;-75
2022/11/11 01:17:05;;;;;;;16.93;8.90;;;6.60;99.90;;;;;;5099304;28;20584;-75
2022/11/11 01:19:52;;;;;;;23.40;8.57;;;6.60;99.90;;;;;;5090478;28;20778;-75
2022/11/11 01:22:37;;;;;;;17.23;8.37;;;6.60;99.90;;;;;;5096266;28;20956;-75
2022/11/11 01:25:23;;;;;;;19.07;9.00;;;6.70;99.90;;;;;;5095259;28;20474;-75
2022/11/11 01:28:09;;;;;;;14.10;8.27;;;6.80;99.90;;;;;;5104218;28;21062;-75
2022/11/11 01:30:59;;;;;;;20.77;8.43;;;6.80;99.90;;;;;;5096174;28;20420;-75
2022/11/11 01:33:45;;;;;;;28.75;9.50;;;6.80;99.90;;;;;;5079140;28;20489;-75
2022/11/11 01:36:32;;;;;;;10.20;8.27;;;6.70;99.90;;;;;;5094808;28;20716;-75
2022/11/11 01:39:17;;;;;;;19.33;8.70;;;6.70;99.90;;;;;;5095715;28;20396;-75
2022/11/11 01:42:03;;;;;;;17.73;8.70;;;6.80;99.90;;;;;;5088885;28;20202;-75
2022/11/11 01:44:49;;;;;;;10.25;9.18;;;6.80;99.90;;;;;;5085490;28;20461;-75
2022/11/11 01:50:34;;;;;;;12.13;8.70;;;6.90;99.90;;;;;;5086149;28;20450;-74
2022/11/11 01:53:21;;;;;;;37.13;8.87;;;7.00;99.90;;;;;;5082370;28;20330;-75
2022/11/11 01:56:09;;;;;;;17.00;7.50;;;7.00;99.90;;;;;;5087337;28;20913;-75
2022/11/11 01:58:58;;;;;;;11.95;7.13;;;6.80;99.90;;;;;;5092332;28;20445;-75
2022/11/11 02:01:44;;;;;;;13.20;7.90;;;6.50;99.90;;;;;;5092191;28;20680;-75
2022/11/11 02:07:35;;;;;;;13.57;7.43;;;6.50;99.90;;;;;;5083257;28;20218;-75
2022/11/11 02:10:24;;;;;;;9.10;6.73;;;6.40;99.90;;;;;;5092480;28;20195;-75
2022/11/11 02:16:17;;;;;;;7.82;6.60;;;6.40;99.90;;;;;;5099568;28;20680;-75
2022/11/11 02:19:02;;;;;;;15.13;7.97;;;6.30;99.90;;;;;;5090544;28;20681;-75
2022/11/11 02:21:56;;;;;;;18.90;6.70;;;6.50;99.90;;;;;;5082802;28;20242;-75
2022/11/11 02:24:44;;;;;;;8.30;6.68;;;6.50;99.90;;;;;;5093083;28;20517;-75
2022/11/11 02:27:32;;;;;;;11.33;7.80;;;6.50;99.90;;;;;;5102142;28;20329;-75
2022/11/11 02:30:18;;;;;;;10.05;7.47;;;6.60;99.90;;;;;;5105822;28;20784;-75
2022/11/11 02:33:04;;;;;;;8.15;7.07;;;6.70;99.90;;;;;;5089569;28;20227;-74
2022/11/11 02:35:55;;;;;;;10.00;7.83;;;6.90;99.90;;;;;;5098555;28;20199;-75
2022/11/11 02:38:41;;;;;;;25.85;9.30;;;6.90;99.90;;;;;;5109132;28;20928;-75
2022/11/11 02:44:31;;;;;;;17.20;8.17;;;7.00;99.90;;;;;;5095999;28;20522;-75
2022/11/11 02:47:17;;;;;;;36.83;8.27;;;7.10;99.90;;;;;;5104155;28;20456;-75
2022/11/11 02:50:03;;;;;;;12.83;8.00;;;7.10;99.90;;;;;;5090172;28;20675;-75
2022/11/11 02:52:49;;;;;;;65.72;8.50;;;7.20;99.90;;;;;;5075987;28;20867;-75
2022/11/11 02:55:34;;;;;;;19.70;7.17;;;7.20;99.90;;;;;;5107572;28;20616;-75
2022/11/11 02:58:21;;;;;;;12.82;7.03;;;7.20;99.90;;;;;;5108502;28;20981;-75
2022/11/11 03:01:07;;;;;;;89.10;7.10;;;7.20;99.90;;;;;;5103072;28;20200;-75
2022/11/11 03:03:52;;;;;;;26.25;6.90;;;7.10;99.90;;;;;;5097052;28;20900;-75
2022/11/11 03:06:38;;;;;;;14.03;7.50;;;7.10;99.90;;;;;;5103214;28;20227;-75
2022/11/11 03:09:24;;;;;;;16.77;7.15;;;6.90;99.90;;;;;;5098841;28;20468;-75
2022/11/11 03:12:09;;;;;;;7.20;6.50;;;7.00;99.90;;;;;;5089548;28;20199;-75
2022/11/11 03:14:56;;;;;;;26.40;7.20;;;6.90;99.90;;;;;;5092769;28;20969;-75
2022/11/11 03:17:41;;;;;;;7.50;6.00;;;7.00;99.90;;;;;;5104010;28;20416;-75
2022/11/11 03:23:30;;;;;;;54.50;6.68;;;6.90;99.90;;;;;;5094555;28;20195;-75
2022/11/11 03:26:15;;;;;;;38.22;6.97;;;6.90;99.90;;;;;;5106588;28;20619;-75
2022/11/11 03:29:01;;;;;;;8.02;5.78;;;6.70;99.90;;;;;;5095799;28;20228;-75
2022/11/11 03:31:48;;;;;;;14.43;6.55;;;6.70;99.90;;;;;;5076664;28;20211;-75
2022/11/11 03:34:34;;;;;;;15.77;6.60;;;6.50;99.90;;;;;;5100112;28;20199;-75
2022/11/11 03:40:22;;;;;;;7.90;6.03;;;6.50;99.90;;;;;;5096192;28;20214;-75
2022/11/11 03:43:08;;;;;;;11.18;6.32;;;6.60;99.90;;;;;;5099738;28;20422;-75
2022/11/11 03:45:55;;;;;;;8.25;6.53;;;6.60;99.90;;;;;;5097506;28;20215;-75
2022/11/11 03:48:42;;;;;;;9.50;6.00;;;6.70;99.90;;;;;;5099705;28;20337;-75
2022/11/11 03:51:27;;;;;;;10.20;6.40;;;6.70;99.90;;;;;;5086561;28;20450;-74
2022/11/11 03:54:13;;;;;;;20.67;6.00;;;6.80;99.90;;;;;;5102002;28;20930;-75
2022/11/11 03:59:58;;;;;;;8.43;5.97;;;6.50;99.90;;;;;;5094608;28;20225;-75
2022/11/11 04:11:54;;;;;;;24.25;5.70;;;6.40;99.90;;;;;;5089436;28;20211;-75
2022/11/11 04:17:42;;;;;;;37.70;7.25;;;6.40;99.90;;;;;;5096102;28;20571;-75
2022/11/11 04:23:32;;;;;;;15.20;7.65;;;6.20;99.90;;;;;;5092490;28;20873;-74
2022/11/11 04:26:17;;;;;;;7.28;6.25;;;6.30;99.90;;;;;;5098895;28;20219;-75
2022/11/11 04:35:12;;;;;;;9.55;6.35;;;6.60;99.90;;;;;;5100484;28;20191;-75
2022/11/11 04:41:02;;;;;;;14.40;6.63;;;6.60;99.90;;;;;;5100729;28;20227;-75
2022/11/11 04:41:03;;;;;;;6.90;6.03;;;6.70;99.90;;;;;;5083041;28;20207;-75
2022/11/11 04:47:06;;;;;;;15.63;5.35;;;6.60;99.90;;;;;;5019953;28;20661;-75
2022/11/11 04:49:51;;;;;;;27.35;5.82;;;6.40;99.90;;;;;;5009932;28;20605;-75
2022/11/11 04:52:37;;;;;;;29.15;5.78;;;6.30;99.90;;;;;;5080937;28;20210;-75
2022/11/11 04:58:30;;;;;;;42.37;7.03;;;6.10;99.90;;;;;;5103349;28;20211;-75
2022/11/11 05:03:14;;;;;;;47.33;6.05;;;6.00;99.90;;;;;;5089658;28;20823;-75
2022/11/11 05:04:20;;;;;;;21.85;6.13;;;6.00;99.90;;;;;;5079553;28;20208;-74
2022/11/11 05:10:09;;;;;;;21.73;5.67;;;6.10;99.90;;;;;;5087158;28;20195;-75
2022/11/11 05:21:19;;;;;;;19.40;5.68;;;6.20;99.90;;;;;;5083207;28;20421;-74
2022/11/11 05:22:13;;;;;;;22.17;7.57;;;6.10;99.90;;;;;;5092723;28;20242;-75
2022/11/11 05:28:03;;;;;;;11.13;7.68;;;6.10;99.90;;;;;;5099220;28;20225;-75
2022/11/11 05:30:48;;;;;;;8.45;7.53;;;6.20;99.90;;;;;;5083545;28;20232;-75
2022/11/11 05:33:35;;;;;;;9.13;7.03;;;6.40;99.90;;;;;;5102679;28;20247;-75
2022/11/11 05:36:21;;;;;;;9.98;7.18;;;6.40;99.90;;;;;;5097736;28;20204;-75
2022/11/11 05:39:06;;;;;;;8.67;6.73;;;6.50;99.90;;;;;;5099573;28;20285;-75
2022/11/11 05:41:52;;;;;;;8.33;6.53;;;6.60;99.90;;;;;;5096445;28;21065;-75
2022/11/11 05:44:38;;;;;;;9.20;6.65;;;6.70;99.90;;;;;;5112442;28;20480;-75
2022/11/11 05:47:23;;;;;;;9.18;5.95;;;6.70;99.90;;;;;;5080467;28;20301;-74
2022/11/11 05:50:10;;;;;;;8.32;6.47;;;6.70;99.90;;;;;;5082316;28;20200;-74
2022/11/11 05:52:56;;;;;;;33.30;7.03;;;6.70;99.90;;;;;;5107748;28;20194;-75
2022/11/11 05:55:41;;;;;;;9.68;7.93;;;6.80;99.90;;;;;;5110578;28;20199;-75
2022/11/11 05:58:27;;;;;;;21.53;12.10;;;6.80;99.90;;;;;;5096293;28;20223;-75
2022/11/11 06:01:13;;;;;;;15.23;11.07;;;6.80;99.90;;;;;;5088944;28;20421;-75
2022/11/11 06:03:58;;;;;;;13.43;6.90;;;6.80;99.90;;;;;;5108932;28;20591;-75
2022/11/11 06:06:45;;;;;;;15.10;6.33;;;6.80;99.90;;;;;;5107141;28;20527;-74
2022/11/11 06:09:31;;;;;;;7.35;6.15;;;6.70;99.90;;;;;;5091118;28;20814;-74
2022/11/11 06:12:16;;;;;;;62.15;7.85;;;6.70;99.90;;;;;;5106638;28;20563;-74
2022/11/11 06:15:02;;;;;;;9.77;6.50;;;6.60;99.90;;;;;;5107079;28;20194;-74
2022/11/11 06:17:48;;;;;;;7.17;6.13;;;6.60;99.90;;;;;;5091720;28;20230;-74
2022/11/11 06:20:34;;;;;;;9.57;7.07;;;6.60;99.90;;;;;;5096682;28;20808;-75
2022/11/11 06:23:21;;;;;;;7.40;5.90;;;6.70;99.90;;;;;;5107067;28;20429;-75
2022/11/11 06:26:12;;;;;;;8.25;5.70;;;6.70;99.90;;;;;;5103042;28;20215;-75
2022/11/11 06:28:58;;;;;;;18.03;5.60;;;6.70;99.90;;;;;;5091864;28;20203;-75
2022/11/11 06:31:45;;;;;;;6.22;5.18;;;6.60;99.90;;;;;;5091439;28;20499;-75
2022/11/11 06:34:30;;;;;;;24.05;5.47;;;6.50;99.90;;;;;;5109301;28;20215;-75
2022/11/11 06:37:16;;;;;;;11.60;5.38;;;6.30;99.90;;;;;;5102793;28;20269;-75
2022/11/11 06:40:03;;;;;;;6.55;5.82;;;6.20;99.90;;;;;;5104713;28;20199;-75
2022/11/11 06:42:49;;;;;;;9.35;5.45;;;6.20;99.90;;;;;;5085376;28;20207;-75
2022/11/11 06:45:36;;;;;;;7.57;6.50;;;6.30;99.90;;;;;;5101987;28;20222;-75
2022/11/11 06:48:22;;;;;;;7.07;6.03;;;6.40;99.90;;;;;;5093255;28;20220;-74
2022/11/11 06:51:08;;;;;;;8.50;6.47;;;6.50;99.90;;;;;;5093379;28;20509;-75
2022/11/11 06:53:53;;;;;;;6.53;5.80;;;6.50;99.90;;;;;;5097621;28;20507;-75
2022/11/11 06:56:40;;;;;;;12.20;6.40;;;6.70;99.90;;;;;;5103287;28;20586;-74
2022/11/11 06:59:26;;;;;;;8.98;5.15;;;6.70;99.90;;;;;;5094139;28;20210;-75
2022/11/11 07:02:13;;;;;;;19.77;6.37;;;6.50;99.90;;;;;;5088889;28;20231;-75
2022/11/11 07:04:59;;;;;;;28.87;6.97;;;6.40;99.90;;;;;;5091865;28;20450;-75
2022/11/11 07:07:44;;;;;;;8.07;6.75;;;6.30;99.90;;;;;;5097334;28;20437;-75
2022/11/11 07:10:31;;;;;;;8.75;6.75;;;6.10;99.90;;;;;;5094133;28;20680;-75
2022/11/11 07:13:18;;;;;;;7.82;6.55;;;6.20;99.90;;;;;;5109076;28;20229;-75
2022/11/11 07:16:03;;;;;;;10.70;6.57;;;6.30;99.90;;;;;;5091129;28;20195;-74
2022/11/11 07:18:49;;;;;;;18.13;7.20;;;6.20;99.90;;;;;;5083836;28;20326;-75
2022/11/11 07:21:35;;;;;;;10.32;9.20;;;6.20;99.90;;;;;;5104361;28;20535;-75
2022/11/11 07:24:21;;;;;;;28.13;9.85;;;6.30;99.90;;;;;;5098013;28;20269;-74
2022/11/11 07:27:06;;;;;;;65.60;9.77;;;6.30;99.90;;;;;;5095007;28;20226;-74
2022/11/11 07:29:53;;;;;;;23.25;9.45;;;6.20;99.90;;;;;;5098793;28;20208;-76
2022/11/11 07:32:45;;;;;;;10.75;9.65;;;6.10;99.90;;;;;;5094517;28;20226;-75
2022/11/11 07:35:31;;;;;;;13.82;9.50;;;6.30;99.90;;;;;;5105796;28;20206;-75
2022/11/11 07:38:16;;;;;;;78.73;11.23;;;6.40;99.90;;;;;;5098067;28;20276;-75
2022/11/11 07:41:02;;;;;;;38.13;9.20;;;6.30;99.90;;;;;;5106518;28;20414;-75
2022/11/11 07:43:48;;;;;;;16.73;8.75;;;6.30;99.90;;;;;;5103433;28;20548;-75
2022/11/11 07:46:35;;;;;;;18.95;8.10;;;6.30;99.90;;;;;;5101447;28;20238;-75
2022/11/11 07:49:21;;;;;;;26.40;9.03;;;6.20;99.90;;;;;;5106012;28;20680;-75
2022/11/11 07:52:06;;;;;;;10.45;8.63;;;6.30;99.90;;;;;;5111010;28;20517;-75
2022/11/11 07:54:52;;;;;;;40.90;8.48;;;6.30;99.90;;;;;;5098149;28;20712;-75
2022/11/11 07:57:38;;;;;;;11.77;9.17;;;6.30;99.90;;;;;;5094858;28;20736;-74
2022/11/11 08:00:24;;;;;;;15.23;10.52;;;6.30;99.90;;;;;;5097567;28;20417;-75
2022/11/11 08:03:11;;;;;;;10.18;8.88;;;6.40;99.90;;;;;;5110936;28;20199;-75
2022/11/11 08:05:56;;;;;;;12.27;9.80;;;6.50;99.90;;;;;;5103617;28;20582;-75
2022/11/11 08:08:42;;;;;;;37.72;9.07;;;6.60;99.90;;;;;;5088768;28;20328;-75
2022/11/11 08:14:30;;;;;;;9.10;8.20;;;6.80;99.90;;;;;;5096758;28;20446;-75
2022/11/11 08:17:16;;;;;;;11.30;9.10;;;6.90;99.90;;;;;;5088749;28;20962;-75
2022/11/11 08:20:03;;;;;;;11.33;9.50;;;7.10;99.90;;;;;;5098160;28;20506;-75
2022/11/11 08:22:53;;;;;;;26.27;11.20;;;7.20;99.90;;;;;;5095294;28;20523;-75
2022/11/11 08:25:39;;;;;;;39.50;11.53;;;7.30;99.90;;;;;;5105674;28;20222;-75
2022/11/11 08:28:25;;;;;;;19.20;11.07;;;7.40;99.90;;;;;;5084422;28;20790;-75
2022/11/11 08:31:11;;;;;;;19.40;11.83;;;7.40;99.90;;;;;;5098992;28;20491;-75
2022/11/11 08:33:56;;;;;;;23.17;10.88;;;7.50;99.90;;;;;;5091386;28;21042;-74
2022/11/11 08:36:43;;;;;;;15.67;11.70;;;7.70;99.90;;;;;;5089460;28;20219;-76
2022/11/11 08:39:29;;;;;;;37.47;9.50;;;7.70;99.90;;;;;;5097487;28;20422;-75
2022/11/11 08:42:15;;;;;;;26.23;10.53;;;7.80;99.90;;;;;;5107634;28;21060;-75
2022/11/11 08:45:00;;;;;;;17.30;10.10;;;7.80;99.90;;;;;;5103742;28;20425;-75
2022/11/11 08:47:46;;;;;;;14.40;9.40;;;7.90;99.90;;;;;;5078791;28;20439;-75
2022/11/11 08:50:31;;;;;;;18.03;8.97;;;7.90;99.90;;;;;;5091407;28;20457;-74
2022/11/11 08:53:19;;;;;;;20.83;9.33;;;7.90;99.90;;;;;;5094763;28;20798;-74
2022/11/11 08:56:05;;;;;;;37.63;10.93;;;8.00;99.90;;;;;;5094577;28;20581;-74
2022/11/11 08:58:51;;;;;;;24.67;11.17;;;8.00;99.90;;;;;;5105777;28;20430;-74
2022/11/11 09:01:36;;;;;;;24.20;12.43;;;8.00;99.90;;;;;;5101769;28;20487;-74
2022/11/11 09:04:22;;;;;;;54.97;12.80;;;8.00;99.90;;;;;;5092191;28;20462;-75
2022/11/11 09:07:08;;;;;;;40.00;11.77;;;8.10;99.90;;;;;;5085630;28;20445;-74
2022/11/11 09:09:56;;;;;;;18.37;11.40;;;8.10;99.90;;;;;;5097653;28;20453;-74
2022/11/11 09:12:41;;;;;;;25.50;10.00;;;8.10;99.90;;;;;;5105916;28;20438;-74
2022/11/11 09:15:27;;;;;;;47.27;10.37;;;8.10;99.90;;;;;;5084662;28;20964;-74
2022/11/11 09:18:13;;;;;;;28.63;13.00;;;8.00;99.90;;;;;;5088691;28;20483;-74
2022/11/11 09:20:59;;;;;;;84.17;12.90;;;8.10;99.90;;;;;;5102273;28;20545;-74
2022/11/11 09:23:45;;;;;;;39.60;11.00;;;8.20;99.90;;;;;;5093764;28;20457;-74
2022/11/11 09:26:32;;;;;;;34.97;11.60;;;8.00;99.90;;;;;;5098862;28;20618;-74
2022/11/11 09:29:18;;;;;;;35.03;11.77;;;8.00;99.90;;;;;;5108910;28;20946;-75
2022/11/11 09:32:04;;;;;;;16.30;11.23;;;8.00;99.90;;;;;;5079268;28;20453;-74
2022/11/11 09:34:50;;;;;;;20.03;9.87;;;7.90;99.90;;;;;;5095014;28;20814;-75
2022/11/11 09:37:35;;;;;;;18.63;9.50;;;8.00;99.90;;;;;;5096014;28;20785;-74
2022/11/11 09:40:23;;;;;;;24.83;11.30;;;8.10;99.90;;;;;;5100637;28;20408;-74
2022/11/11 09:43:24;;;;;;;16.83;10.63;;;8.10;99.90;;;;;;5098265;28;20944;-74
2022/11/11 09:46:22;;;;;;;20.97;9.57;;;8.30;99.90;;;;;;5109289;28;20967;-74
2022/11/11 09:49:36;;;;;;;15.67;8.60;;;8.40;99.90;;;;;;5095645;28;20430;-74
2022/11/11 09:52:26;;;;;;;13.17;9.80;;;8.50;99.90;;;;;;5095592;28;20447;-74
2022/11/11 09:55:18;;;;;;;13.97;9.87;;;8.60;99.90;;;;;;5108802;28;20440;-74
2022/11/11 09:58:09;;;;;;;15.53;11.43;;;8.70;99.90;;;;;;5101598;28;21123;-74
2022/11/11 10:01:02;;;;;;;14.37;11.17;;;8.70;99.90;;;;;;5102242;28;20467;-74
2022/11/11 10:03:54;;;;;;;13.10;10.50;;;8.80;99.90;;;;;;5099009;28;20421;-74
2022/11/11 10:06:40;;;;;;;21.83;10.70;;;8.90;99.90;;;;;;5103440;28;21009;-74
2022/11/11 10:09:31;;;;;;;17.60;11.50;;;8.90;99.90;;;;;;5087759;28;20425;-74
2022/11/11 10:12:17;;;;;;;12.43;10.30;;;8.90;99.90;;;;;;5093778;28;20533;-72
2022/11/11 10:15:05;;;;;;;19.67;10.60;;;9.00;99.90;;;;;;5085478;28;20453;-74
2022/11/11 10:18:15;;;;;;;40.97;9.43;;;9.10;99.90;;;;;;5090437;28;20465;-74
2022/11/11 10:21:05;;;;;;;14.90;10.30;;;9.20;99.90;;;;;;5089356;28;20461;-73
2022/11/11 10:23:55;;;;;;;20.53;8.30;;;9.30;99.90;;;;;;5081999;28;21081;-73
2022/11/11 10:26:42;;;;;;;11.60;8.13;;;9.30;99.90;;;;;;5082785;28;20632;-73
2022/11/11 10:29:36;;;;;;;23.73;8.63;;;9.30;99.90;;;;;;5092174;28;20496;-73
2022/11/11 10:32:25;;;;;;;19.20;8.00;;;9.30;99.90;;;;;;5094654;28;20437;-73
2022/11/11 10:35:18;;;;;;;16.23;11.23;;;9.40;99.90;;;;;;5097606;28;20417;-73
2022/11/11 10:38:17;;;;;;;21.13;11.83;;;9.50;99.90;;;;;;5091248;28;20447;-73
2022/11/11 10:41:11;;;;;;;34.30;13.50;;;9.50;99.90;;;;;;5087270;28;20925;-72
2022/11/11 10:43:56;;;;;;;14.57;11.90;;;9.60;99.90;;;;;;5088764;28;20737;-74
2022/11/11 10:46:52;;;;;;;15.53;12.10;;;9.70;99.90;;;;;;5092847;28;20577;-74
2022/11/11 10:49:45;;;;;;;15.40;12.20;;;9.80;99.90;;;;;;5108553;28;20761;-74
2022/11/11 10:52:36;;;;;;;23.80;12.30;;;9.90;99.90;;;;;;5102204;28;20433;-74
2022/11/11 10:55:27;;;;;;;15.40;11.67;;;10.00;99.90;;;;;;5102193;28;20555;-74
2022/11/11 10:58:22;;;;;;;14.47;10.30;;;10.10;99.90;;;;;;5100265;28;20507;-74
2022/11/11 11:01:12;;;;;;;17.60;10.97;;;10.20;99.90;;;;;;5103160;28;20447;-75
2022/11/11 11:04:01;;;;;;;15.53;11.43;;;10.30;99.90;;;;;;5104152;28;20804;-75
2022/11/11 11:06:49;;;;;;;13.50;10.80;;;10.30;99.90;;;;;;5087775;28;20464;-75
2022/11/11 11:09:42;;;;;;;12.87;10.50;;;10.30;99.90;;;;;;5100337;28;20434;-74
2022/11/11 11:12:35;;;;;;;13.80;10.90;;;10.40;99.90;;;;;;5099836;28;20557;-74
2022/11/11 11:15:25;;;;;;;11.57;9.20;;;10.30;99.90;;;;;;5103857;28;20446;-75
2022/11/11 11:18:13;;;;;;;10.43;9.33;;;10.30;99.90;;;;;;5086942;28;20538;-75
2022/11/11 11:21:01;;;;;;;12.80;10.20;;;10.40;99.90;;;;;;5095790;28;20436;-75
2022/11/11 11:23:47;;;;;;;12.87;10.30;;;10.40;99.90;;;;;;5091571;28;20415;-74
2022/11/11 11:26:45;;;;;;;11.53;9.80;;;10.50;99.90;;;;;;5094868;28;20473;-75
2022/11/11 11:29:34;;;;;;;11.63;9.30;;;10.60;99.90;;;;;;5099139;28;20568;-75
2022/11/11 11:32:22;;;;;;;13.17;10.57;;;10.60;99.90;;;;;;5107911;28;20437;-74
2022/11/11 11:35:08;;;;;;;15.03;9.70;;;10.60;99.90;;;;;;5087316;28;20574;-75
2022/11/11 11:37:54;;;;;;;11.40;9.80;;;10.70;99.90;;;;;;5094918;28;20429;-74
2022/11/11 11:40:48;;;;;;;11.53;9.83;;;10.80;99.90;;;;;;5098571;28;20479;-74
2022/11/11 11:43:36;;;;;;;11.57;10.07;;;10.80;99.90;;;;;;5099688;28;20897;-74
2022/11/11 11:46:28;;;;;;;10.50;9.17;;;10.80;99.90;;;;;;5084644;28;20579;-74
2022/11/11 11:49:26;;;;;;;10.30;9.17;;;10.90;99.90;;;;;;5094406;28;20438;-74
2022/11/11 11:52:20;;;;;;;14.50;9.57;;;11.00;99.90;;;;;;5095137;28;20490;-75
2022/11/11 11:55:13;;;;;;;13.90;9.57;;;11.10;99.90;;;;;;5089481;28;20521;-75
2022/11/11 11:58:12;;;;;;;14.80;9.93;;;11.30;99.90;;;;;;5079776;28;20687;-74
2022/11/11 12:01:04;;;;;;;12.40;9.77;;;11.50;99.90;;;;;;5089889;28;20860;-74
2022/11/11 12:04:15;;;;;;;10.43;8.10;;;11.70;99.90;;;;;;5108099;28;20872;-74
2022/11/11 12:07:11;;;;;;;13.57;9.07;;;11.90;99.90;;;;;;5098691;28;20476;-75
2022/11/11 12:10:05;;;;;;;10.73;8.67;;;12.10;99.90;;;;;;5102917;28;20454;-74
2022/11/11 12:12:58;;;;;;;11.23;8.87;;;12.30;99.90;;;;;;5094963;28;20948;-74
2022/11/11 12:15:57;;;;;;;10.40;8.53;;;12.50;99.90;;;;;;5089403;28;20817;-74
2022/11/11 12:19:15;;;;;;;9.97;7.87;;;12.90;99.90;;;;;;5092811;28;20829;-74
2022/11/11 12:22:07;;;;;;;10.93;7.97;;;13.00;99.90;;;;;;5096893;28;20943;-74
2022/11/11 12:25:02;;;;;;;11.73;8.30;;;13.20;99.90;;;;;;5082065;28;20435;-74
2022/11/11 12:28:00;;;;;;;9.93;8.17;;;13.50;99.90;;;;;;5088387;28;20475;-74
2022/11/11 12:30:51;;;;;;;11.20;8.10;;;13.70;99.90;;;;;;5097645;28;20497;-74
2022/11/11 12:34:02;;;;;;;12.43;8.13;;;13.90;99.90;;;;;;5097181;28;20420;-74
2022/11/11 12:36:58;;;;;;;8.20;6.87;;;14.20;99.90;;;;;;5096436;28;20455;-74
2022/11/11 12:40:07;;;;;;;8.93;6.90;;;14.30;99.90;;;;;;5087232;28;20411;-75
2022/11/11 12:43:10;;;;;;;7.47;6.77;;;14.50;99.90;;;;;;5092844;28;20459;-74
2022/11/11 12:46:04;;;;;;;11.87;8.30;;;14.60;99.90;;;;;;5084962;28;20445;-75
2022/11/11 12:49:03;;;;;;;18.80;7.07;;;14.80;99.90;;;;;;5085013;28;20424;-75
2022/11/11 12:51:57;;;;;;;12.57;6.80;;;15.30;99.90;;;;;;5092477;28;20441;-75
2022/11/11 12:54:54;;;;;;;8.17;6.50;;;15.60;99.90;;;;;;5085670;28;20453;-74
2022/11/11 12:57:54;;;;;;;8.50;5.53;;;15.80;99.90;;;;;;5090893;28;20455;-74
2022/11/11 13:00:45;;;;;;;8.13;5.57;;;15.70;99.90;;;;;;5092767;28;20432;-74
2022/11/11 13:04:02;;;;;;;8.50;6.20;;;15.50;99.90;;;;;;5093475;28;20565;-74
2022/11/11 13:07:06;;;;;;;9.50;6.27;;;15.50;99.90;;;;;;5079328;28;20446;-75
2022/11/11 13:10:06;;;;;;;8.10;6.50;;;15.40;99.90;;;;;;5094754;28;20411;-73
2022/11/11 13:13:00;;;;;;;7.30;6.27;;;15.40;99.90;;;;;;5092290;28;20794;-73
2022/11/11 13:15:47;;;;;;;7.27;6.40;;;15.80;99.90;;;;;;5088482;28;20419;-73
2022/11/11 13:18:44;;;;;;;14.43;6.80;;;16.10;99.90;;;;;;5089431;28;20433;-73
2022/11/11 13:21:37;;;;;;;9.53;5.70;;;16.30;99.90;;;;;;5097450;28;20943;-74
2022/11/11 13:24:24;;;;;;;9.90;7.47;;;16.30;99.90;;;;;;5088079;28;20477;-72
2022/11/11 13:27:17;;;;;;;13.00;9.50;;;16.10;99.90;;;;;;5092498;28;20496;-72
2022/11/11 13:30:34;;;;;;;14.13;11.20;;;15.90;99.90;;;;;;5098632;28;20464;-73
2022/11/11 13:33:22;;;;;;;12.30;10.47;;;15.40;99.90;;;;;;5098894;28;20801;-73
2022/11/11 13:36:10;;;;;;;14.87;11.57;;;15.20;99.90;;;;;;5084238;28;20421;-71
2022/11/11 13:39:00;;;;;;;15.10;12.13;;;14.90;99.90;;;;;;5097887;28;20779;-74
2022/11/11 13:41:50;;;;;;;16.43;13.70;;;14.60;99.90;;;;;;5106613;28;20417;-73
2022/11/11 13:44:47;;;;;;;14.90;12.30;;;14.40;99.90;;;;;;5099302;28;20458;-74
2022/11/11 13:47:37;;;;;;;18.67;13.63;;;14.30;99.90;;;;;;5088956;28;20473;-75
2022/11/11 13:50:27;;;;;;;15.47;13.80;;;14.00;99.90;;;;;;5107818;28;20541;-74
2022/11/11 13:53:23;;;;;;;19.17;16.20;;;13.40;99.90;;;;;;5102419;28;20782;-74
2022/11/11 13:56:12;;;;;;;17.47;15.10;;;12.90;99.90;;;;;;5089420;28;20451;-74
2022/11/11 13:58:59;;;;;;;20.40;16.43;;;12.70;99.90;;;;;;5102410;28;20418;-74
2022/11/11 14:01:44;;;;;;;19.50;15.87;;;12.40;99.90;;;;;;5099255;28;20420;-74
2022/11/11 14:04:31;;;;;;;21.70;17.10;;;12.10;99.90;;;;;;5110143;28;20898;-74
2022/11/11 14:07:49;;;;;;;27.10;16.70;;;11.70;99.90;;;;;;5089867;28;20477;-74
2022/11/11 14:10:58;;;;;;;26.57;18.20;;;11.40;99.90;;;;;;5102034;28;20469;-74
2022/11/11 14:13:44;;;;;;;23.67;18.47;;;11.30;99.90;;;;;;5106126;28;20940;-75
2022/11/11 14:17:00;;;;;;;25.63;18.90;;;11.20;99.90;;;;;;5094981;28;20587;-74
2022/11/11 14:19:45;;;;;;;23.27;17.73;;;11.20;99.90;;;;;;5095147;28;20568;-73
2022/11/11 14:22:33;;;;;;;24.50;19.30;;;11.00;99.90;;;;;;5097422;28;20400;-74
2022/11/11 14:25:23;;;;;;;25.50;19.70;;;11.00;99.90;;;;;;5104299;28;20404;-74
2022/11/11 14:28:21;;;;;;;27.17;20.73;;;11.00;99.90;;;;;;5100368;28;20484;-74
2022/11/11 14:31:31;;;;;;;28.03;20.93;;;10.90;99.90;;;;;;5105307;28;20417;-75
2022/11/11 14:34:28;;;;;;;27.80;20.87;;;10.80;99.90;;;;;;5104460;28;20872;-75
2022/11/11 14:37:25;;;;;;;32.27;22.03;;;10.70;99.90;;;;;;5094053;28;21072;-75
2022/11/11 14:40:15;;;;;;;30.53;21.93;;;10.60;99.90;;;;;;5103970;28;20499;-74
2022/11/11 14:43:34;;;;;;;37.23;24.57;;;10.60;99.90;;;;;;5091486;28;20508;-74
2022/11/11 14:46:19;;;;;;;40.90;24.23;;;10.40;99.90;;;;;;5084458;28;20457;-75
2022/11/11 14:49:08;;;;;;;35.10;25.37;;;10.40;99.90;;;;;;5080771;28;20412;-75
2022/11/11 14:52:25;;;;;;;34.70;23.20;;;10.40;99.90;;;;;;5085278;28;20546;-76
2022/11/11 14:55:26;;;;;;;34.80;25.27;;;10.50;99.90;;;;;;5097577;28;20928;-73
2022/11/11 14:58:40;;;;;;;40.83;25.23;;;10.60;99.90;;;;;;5093678;28;20423;-75
2022/11/11 15:01:27;;;;;;;37.83;25.20;;;10.70;99.90;;;;;;5100007;28;20409;-76
2022/11/11 15:04:17;;;;;;;34.57;25.53;;;10.60;99.90;;;;;;5087323;28;20453;-75
2022/11/11 15:07:15;;;;;;;38.30;28.00;;;10.60;99.90;;;;;;5087165;28;20447;-75
2022/11/11 15:10:14;;;;;;;40.17;29.57;;;10.50;99.90;;;;;;5093994;28;20982;-75
2022/11/11 15:13:52;;;;;;;50.57;35.07;;;10.50;99.90;;;;;;5079809;28;20453;-76
2022/11/11 15:16:53;;;;;;;41.77;26.17;;;10.30;99.90;;;;;;5064819;28;20852;-76
2022/11/11 15:19:53;;;;;;;41.03;26.17;;;10.30;99.90;;;;;;5085111;28;20452;-75
2022/11/11 15:22:54;;;;;;;41.13;27.60;;;10.30;99.90;;;;;;5095889;28;20481;-75
2022/11/11 15:25:49;;;;;;;40.27;24.93;;;10.30;99.90;;;;;;5088908;28;20767;-76
2022/11/11 15:28:58;;;;;;;37.10;24.57;;;10.20;99.90;;;;;;5095934;28;20501;-75
2022/11/11 15:31:54;;;;;;;38.40;26.37;;;10.30;99.90;;;;;;5085073;28;20400;-76
2022/11/11 15:34:46;;;;;;;52.13;24.67;;;10.20;99.90;;;;;;5084569;28;20450;-76
2022/11/11 15:37:32;;;;;;;37.13;23.57;;;10.20;99.90;;;;;;5091046;28;20796;-75
2022/11/11 15:40:20;;;;;;;53.07;26.10;;;10.20;99.90;;;;;;5085004;28;20424;-74
2022/11/11 15:43:05;;;;;;;48.87;26.70;;;10.10;99.90;;;;;;5084202;28;20429;-75
2022/11/11 15:45:52;;;;;;;43.97;26.00;;;10.10;99.90;;;;;;5086560;28;20404;-77
2022/11/11 15:48:42;;;;;;;46.20;27.47;;;10.10;99.90;;;;;;5096262;28;20498;-75
2022/11/11 15:51:32;;;;;;;92.43;39.40;;;10.00;99.90;;;;;;5090524;28;20436;-75
2022/11/11 15:54:28;;;;;;;70.57;35.37;;;10.00;99.90;;;;;;5081384;28;20797;-75
2022/11/11 15:57:30;;;;;;;60.60;27.10;;;10.00;99.90;;;;;;5090988;28;20447;-75